Pilot Knob, Missouri
Current Conditions -  °F | °C
As of 4:35 AM on Friday 31 Oct 2014 (Local Time) from KFAM Reporting Station
Clear Clear  
Wind Chill: 39°   Ceiling: Unl
Heat Index: 45°   Visibility: 10mi
Dew Point: 43°   Wind: 10mph
Humidity: 93%   Direction: 290°WNW
Pressure: 30.08"   Gusts: 16mph
Location:  37.62°N, 90.64°W
Report Text: KFAM 310935Z AUTO 29009G14KT 10SM CLR 07/06 A3008 RMK AO1
Loading
Personal Weather Stations






























Interactive Weather Map
Tropical Storm Tracking
New forecast layout! Learn more

10-Day Weather Forecast

Advertisements
Track Severe Weather on mobile